createdAt,value
2019-03-09T00:32:42.961Z,21.87
2019-03-09T00:37:44.718Z,22.20
2019-03-09T00:42:48.355Z,17.43
2019-03-09T00:47:50.139Z,17.47
2019-03-09T00:52:54.468Z,20.13
2019-03-09T00:57:56.197Z,20.77
2019-03-09T01:02:57.789Z,20.47
2019-03-09T01:08:00.661Z,17.67
2019-03-09T01:13:04.618Z,16.70
2019-03-09T01:18:06.986Z,21.73
2019-03-09T01:23:08.600Z,17.00
2019-03-09T01:28:10.290Z,14.90
2019-03-09T01:33:11.920Z,17.30
2019-03-09T01:38:18.025Z,16.23
2019-03-09T01:43:22.463Z,16.67
2019-03-09T01:48:24.079Z,19.07
2019-03-09T01:53:25.803Z,15.37
2019-03-09T01:58:27.423Z,14.97
2019-03-09T02:03:31.688Z,16.83
2019-03-09T02:08:34.545Z,13.80
2019-03-09T02:13:36.225Z,12.33
2019-03-09T02:18:37.911Z,11.73
2019-03-09T02:23:39.614Z,13.10
2019-03-09T02:28:41.225Z,14.17
2019-03-09T02:33:44.924Z,14.87
2019-03-09T02:39:24.142Z,13.67
2019-03-09T02:44:25.768Z,12.87
2019-03-09T02:49:27.818Z,18.63
2019-03-09T02:54:30.609Z,21.03
2019-03-09T02:59:32.395Z,20.50
2019-03-09T03:04:34.116Z,19.47
2019-03-09T03:09:35.710Z,26.47
2019-03-09T03:14:40.566Z,19.47
2019-03-09T03:19:42.163Z,22.00
2019-03-09T03:24:46.909Z,30.70
2019-03-09T03:29:48.538Z,18.80
2019-03-09T03:34:53.367Z,30.63
2019-03-09T03:39:54.946Z,12.67
2019-03-09T03:44:59.150Z,22.27
2019-03-09T03:50:00.730Z,25.43
2019-03-09T03:55:02.322Z,27.27
2019-03-09T04:00:04.880Z,15.57
2019-03-09T04:05:06.491Z,14.40
2019-03-09T04:10:11.576Z,20.57
2019-03-09T04:15:13.170Z,16.07
2019-03-09T04:20:22.240Z,24.03
2019-03-09T04:25:25.625Z,22.23
2019-03-09T04:30:30.776Z,15.93
2019-03-09T04:35:36.433Z,21.27
2019-03-09T04:40:38.062Z,14.43
2019-03-09T04:45:39.838Z,15.07
2019-03-09T04:50:41.427Z,17.20
2019-03-09T04:55:43.941Z,16.80
2019-03-09T05:00:45.559Z,16.60
2019-03-09T05:05:47.414Z,17.40
2019-03-09T05:10:53.678Z,14.90
2019-03-09T05:15:55.293Z,20.87
2019-03-09T05:20:57.046Z,14.80
2019-03-09T05:25:58.735Z,15.87
2019-03-09T05:31:03.779Z,23.77
2019-03-09T05:36:12.763Z,21.00
2019-03-09T05:41:16.425Z,24.47
2019-03-09T05:46:18.035Z,14.00
2019-03-09T05:51:19.711Z,19.93
2019-03-09T05:56:21.398Z,15.37
2019-03-09T06:01:24.150Z,14.67
2019-03-09T06:06:27.064Z,21.17
2019-03-09T06:11:28.804Z,20.07
2019-03-09T06:16:32.120Z,18.50
2019-03-09T06:21:36.555Z,26.73
2019-03-09T06:26:38.283Z,21.40
2019-03-09T06:31:42.997Z,23.20
2019-03-09T06:36:50.963Z,19.37
2019-03-09T06:42:20.708Z,27.13
2019-03-09T06:47:25.263Z,17.80
2019-03-09T06:52:29.433Z,24.13
2019-03-09T06:57:31.153Z,19.17
2019-03-09T07:02:32.762Z,18.47
2019-03-09T07:07:34.477Z,23.40
2019-03-09T07:12:36.138Z,21.57
2019-03-09T07:17:37.826Z,19.93
2019-03-09T07:22:42.135Z,23.73
2019-03-09T07:27:43.997Z,22.13
2019-03-09T07:32:47.925Z,23.50
2019-03-09T07:37:54.601Z,22.93
2019-03-09T07:42:57.583Z,32.53
2019-03-09T07:48:00.557Z,23.13
2019-03-09T07:53:03.712Z,20.73
2019-03-09T07:58:05.594Z,30.33
2019-03-09T08:03:07.278Z,20.67
2019-03-09T08:08:08.898Z,25.73
2019-03-09T08:13:16.616Z,26.23
2019-03-09T08:18:18.388Z,26.43
2019-03-09T08:23:20.031Z,28.10
2019-03-09T08:28:21.668Z,31.30
2019-03-09T08:33:23.370Z,29.37
2019-03-09T08:38:26.749Z,31.43
2019-03-09T08:43:28.500Z,32.20
2019-03-09T08:48:30.298Z,30.67
2019-03-09T08:53:34.790Z,29.27
2019-03-09T08:58:36.569Z,20.60
2019-03-09T09:03:40.049Z,24.33
2019-03-09T09:08:44.237Z,16.17
2019-03-09T09:13:45.968Z,25.30
2019-03-09T09:18:47.612Z,29.30
2019-03-09T09:23:49.508Z,29.23
2019-03-09T09:28:52.790Z,20.90
2019-03-09T09:33:58.472Z,26.10
2019-03-09T09:39:00.498Z,29.80
2019-03-09T09:44:02.398Z,30.47
2019-03-09T09:49:04.245Z,27.63
2019-03-09T09:54:05.874Z,27.93
2019-03-09T09:59:07.617Z,29.43
2019-03-09T10:04:09.451Z,17.47
2019-03-09T10:09:12.906Z,25.43
2019-03-09T10:14:14.616Z,39.20
2019-03-09T10:19:18.573Z,31.50
2019-03-09T10:24:20.217Z,26.10
2019-03-09T10:29:21.854Z,24.53
2019-03-09T10:34:25.602Z,25.07
2019-03-09T10:39:27.122Z,25.47
2019-03-09T10:44:28.791Z,25.47
2019-03-09T10:49:30.466Z,22.33
2019-03-09T10:54:36.015Z,19.70
2019-03-09T10:59:38.552Z,21.40
2019-03-09T11:04:40.358Z,27.73
2019-03-09T11:09:44.161Z,23.80
2019-03-09T11:14:48.755Z,20.63
2019-03-09T11:19:50.474Z,27.00
2019-03-09T11:25:02.712Z,18.70
2019-03-09T11:29:55.656Z,22.50
2019-03-09T11:34:57.364Z,26.33
2019-03-09T11:40:01.187Z,28.43
2019-03-09T11:45:03.845Z,25.47
2019-03-09T11:50:05.869Z,27.90
2019-03-09T11:55:07.537Z,32.60
2019-03-09T12:00:09.840Z,36.67
2019-03-09T12:05:11.684Z,47.87
2019-03-09T12:10:13.304Z,39.03
2019-03-09T12:15:14.991Z,49.83
2019-03-09T12:20:17.777Z,57.83
2019-03-09T12:25:23.459Z,44.37
2019-03-09T12:30:26.114Z,52.60
2019-03-09T12:35:30.231Z,58.97
2019-03-09T12:40:33.733Z,47.30
2019-03-09T12:45:38.017Z,43.13
2019-03-09T12:50:42.602Z,50.03
2019-03-09T12:55:44.624Z,35.70
2019-03-09T13:00:46.399Z,45.23
2019-03-09T13:05:51.407Z,45.67
2019-03-09T13:10:53.067Z,42.07
2019-03-09T13:15:54.988Z,43.90
2019-03-09T13:20:58.564Z,40.87
2019-03-09T13:26:01.422Z,45.47
2019-03-09T13:31:06.202Z,48.60
2019-03-09T13:36:07.943Z,45.53
2019-03-09T13:41:09.787Z,46.17
2019-03-09T13:46:11.401Z,47.77
2019-03-09T13:51:14.240Z,47.83
2019-03-09T13:56:15.894Z,27.87
2019-03-09T14:01:17.815Z,19.67
2019-03-09T14:06:19.414Z,11.00
2019-03-09T14:11:25.562Z,15.00
2019-03-09T14:16:33.310Z,11.83
2019-03-09T14:21:35.548Z,7.70
2019-03-09T14:26:38.399Z,10.80
2019-03-09T14:31:40.621Z,23.63
2019-03-09T14:36:42.577Z,24.63
2019-03-09T14:41:44.290Z,29.07
2019-03-09T14:46:47.454Z,17.30
2019-03-09T14:51:49.207Z,11.67
2019-03-09T14:56:52.612Z,14.93
2019-03-09T15:01:54.361Z,13.17
2019-03-09T15:06:58.008Z,13.77
2019-03-09T15:11:59.742Z,15.10
2019-03-09T15:17:01.394Z,20.07
2019-03-09T15:22:05.210Z,21.50
2019-03-09T15:27:07.075Z,15.33
2019-03-09T15:32:08.798Z,17.77
2019-03-09T15:37:10.462Z,20.80
2019-03-09T15:42:12.190Z,17.17
2019-03-09T15:47:14.498Z,26.20
2019-03-09T15:52:16.178Z,23.67
2019-03-09T15:57:17.804Z,20.00
2019-03-09T16:02:19.398Z,19.73
2019-03-09T16:07:21.046Z,21.30
2019-03-09T16:12:22.741Z,19.57
2019-03-09T16:17:24.352Z,12.23
2019-03-09T16:22:27.805Z,18.47
2019-03-09T16:27:29.487Z,19.73
2019-03-09T16:32:31.647Z,30.13
2019-03-09T16:37:33.356Z,24.50
2019-03-09T16:42:36.077Z,16.60
2019-03-09T16:47:37.781Z,16.67
2019-03-09T16:52:40.474Z,22.47
2019-03-09T16:57:42.317Z,18.00
2019-03-09T17:02:46.225Z,16.93
2019-03-09T17:07:49.403Z,20.73
2019-03-09T17:12:59.769Z,27.93
2019-03-09T17:18:01.364Z,18.87
2019-03-09T17:23:03.015Z,18.03
2019-03-09T17:28:04.619Z,20.53
2019-03-09T17:33:07.654Z,21.83
2019-03-09T17:38:09.473Z,24.07
2019-03-09T17:43:11.357Z,21.10
2019-03-09T17:48:13.379Z,25.20
2019-03-09T17:53:15.910Z,27.23
2019-03-09T17:58:17.504Z,25.00
2019-03-09T18:03:21.784Z,30.67
2019-03-09T18:08:25.386Z,31.10
2019-03-09T18:13:29.348Z,26.23
2019-03-09T18:18:32.797Z,25.80
2019-03-09T18:23:34.430Z,32.53
2019-03-09T18:28:36.826Z,29.67
2019-03-09T18:33:41.513Z,26.93
2019-03-09T18:38:43.470Z,31.30
2019-03-09T18:43:45.321Z,33.27
2019-03-09T18:48:47.578Z,30.83
2019-03-09T18:53:52.262Z,27.10
2019-03-09T18:58:56.142Z,36.17
2019-03-09T19:03:59.648Z,29.90
2019-03-09T19:09:01.619Z,22.23
2019-03-09T19:14:03.445Z,29.57
2019-03-09T19:19:08.271Z,29.47
2019-03-09T19:24:11.075Z,33.27
2019-03-09T19:29:12.722Z,27.20
2019-03-09T19:34:14.325Z,30.73
2019-03-09T19:39:18.988Z,21.70
2019-03-09T19:44:20.595Z,26.90
2019-03-09T19:49:22.316Z,21.93
2019-03-09T19:54:24.049Z,20.53
2019-03-09T19:59:25.819Z,23.63
2019-03-09T20:04:28.814Z,17.83
2019-03-09T20:09:31.857Z,19.57
2019-03-09T20:14:34.018Z,15.97
2019-03-09T20:19:36.545Z,18.70
2019-03-09T20:24:39.630Z,26.03
2019-03-09T20:29:41.215Z,27.20
2019-03-09T20:34:45.477Z,24.40
2019-03-09T20:39:47.102Z,26.17
2019-03-09T20:44:48.694Z,31.10
2019-03-09T20:49:51.469Z,22.17
2019-03-09T20:54:53.689Z,26.10
2019-03-09T20:59:55.342Z,33.63
2019-03-09T21:04:59.993Z,26.00
2019-03-09T21:10:01.693Z,27.40
2019-03-09T21:15:05.503Z,23.27
2019-03-09T21:20:07.803Z,26.97
2019-03-09T21:25:09.859Z,29.63
2019-03-09T21:30:13.304Z,25.13
2019-03-09T21:35:15.044Z,36.40
2019-03-09T21:40:16.655Z,25.73
2019-03-09T21:45:18.434Z,27.43
2019-03-09T21:50:20.021Z,22.77
2019-03-09T21:55:26.890Z,21.37
2019-03-09T22:00:28.614Z,24.67
2019-03-09T22:05:31.327Z,23.13
2019-03-09T22:10:32.926Z,31.63
2019-03-09T22:15:36.593Z,26.13
2019-03-09T22:20:38.192Z,34.80
2019-03-09T22:25:39.832Z,31.03
2019-03-09T22:30:41.429Z,24.73
2019-03-09T22:35:43.126Z,27.03
2019-03-09T22:40:47.480Z,28.27
2019-03-09T22:45:56.500Z,29.90
2019-03-09T22:50:58.260Z,25.03
2019-03-09T22:55:59.938Z,30.10
2019-03-09T23:01:01.817Z,25.13
2019-03-09T23:06:03.424Z,39.60
2019-03-09T23:11:08.315Z,26.67
2019-03-09T23:16:09.958Z,30.80
2019-03-09T23:21:14.086Z,27.13
2019-03-09T23:26:17.511Z,35.53
2019-03-09T23:31:19.171Z,36.73
2019-03-09T23:36:22.809Z,29.23
2019-03-09T23:41:24.671Z,26.07
2019-03-09T23:46:26.429Z,32.87
2019-03-09T23:51:29.409Z,29.83
2019-03-09T23:56:31.124Z,35.63
